createdAt,value
2022-10-05T00:02:42.025Z,8.20
2022-10-05T00:05:32.237Z,10.10
2022-10-05T00:08:24.158Z,9.10
2022-10-05T00:11:14.349Z,9.77
2022-10-05T00:14:04.212Z,8.77
2022-10-05T00:16:52.713Z,10.10
2022-10-05T00:19:41.207Z,9.57
2022-10-05T00:22:32.642Z,8.63
2022-10-05T00:25:23.062Z,8.90
2022-10-05T00:28:18.203Z,8.70
2022-10-05T00:31:15.355Z,9.50
2022-10-05T00:34:03.814Z,9.63
2022-10-05T00:36:52.316Z,9.00
2022-10-05T00:39:41.736Z,7.20
2022-10-05T00:42:38.593Z,8.40
2022-10-05T00:45:30.948Z,8.80
2022-10-05T00:48:23.054Z,8.67
2022-10-05T00:51:25.864Z,8.53
2022-10-05T00:54:23.263Z,8.17
2022-10-05T00:57:29.820Z,8.60
2022-10-05T01:00:21.167Z,8.87
2022-10-05T01:03:14.897Z,8.57
2022-10-05T01:06:13.891Z,9.07
2022-10-05T01:09:10.483Z,8.70
2022-10-05T01:12:03.644Z,9.00
2022-10-05T01:14:56.683Z,8.80
2022-10-05T01:17:50.910Z,8.53
2022-10-05T01:20:47.975Z,9.00
2022-10-05T01:24:03.016Z,8.70
2022-10-05T01:27:06.833Z,9.83
2022-10-05T01:30:02.321Z,8.60
2022-10-05T01:32:55.199Z,8.00
2022-10-05T01:35:49.422Z,8.70
2022-10-05T01:38:44.639Z,8.17
2022-10-05T01:41:37.060Z,9.20
2022-10-05T01:44:29.050Z,8.10
2022-10-05T01:47:23.443Z,8.97
2022-10-05T01:50:19.691Z,9.00
2022-10-05T01:53:13.832Z,9.20
2022-10-05T01:56:09.242Z,8.77
2022-10-05T01:59:07.970Z,8.10
2022-10-05T02:02:00.294Z,9.60
2022-10-05T02:05:07.988Z,8.67
2022-10-05T02:08:00.800Z,8.87
2022-10-05T02:10:52.790Z,9.93
2022-10-05T02:13:44.140Z,9.53
2022-10-05T02:16:36.675Z,8.73
2022-10-05T02:19:31.023Z,8.27
2022-10-05T02:22:24.284Z,8.80
2022-10-05T02:25:15.213Z,8.50
2022-10-05T02:28:05.766Z,8.77
2022-10-05T02:30:56.634Z,9.10
2022-10-05T02:33:45.152Z,8.00
2022-10-05T02:36:36.125Z,8.20
2022-10-05T02:39:31.012Z,8.17
2022-10-05T02:42:24.557Z,8.30
2022-10-05T02:45:21.075Z,8.40
2022-10-05T02:48:13.805Z,8.70
2022-10-05T02:51:07.422Z,8.47
2022-10-05T02:54:04.370Z,8.37
2022-10-05T02:56:59.228Z,8.70
2022-10-05T02:59:51.279Z,8.60
2022-10-05T03:02:44.285Z,7.30
2022-10-05T03:05:36.253Z,8.47
2022-10-05T03:08:30.222Z,7.90
2022-10-05T03:11:24.099Z,7.90
2022-10-05T03:14:20.452Z,7.87
2022-10-05T03:17:15.363Z,9.13
2022-10-05T03:20:10.911Z,8.87
2022-10-05T03:23:01.377Z,8.17
2022-10-05T03:26:11.741Z,9.20
2022-10-05T03:29:03.887Z,9.43
2022-10-05T03:31:59.493Z,8.90
2022-10-05T03:34:50.386Z,8.50
2022-10-05T03:37:45.106Z,8.63
2022-10-05T03:40:37.898Z,8.63
2022-10-05T03:43:37.374Z,8.60
2022-10-05T03:46:33.851Z,8.77
2022-10-05T03:49:29.591Z,9.33
2022-10-05T03:52:23.166Z,8.63
2022-10-05T03:55:18.505Z,8.00
2022-10-05T03:58:12.314Z,8.20
2022-10-05T04:01:03.400Z,9.80
2022-10-05T04:03:54.355Z,8.40
2022-10-05T04:06:47.586Z,8.87
2022-10-05T04:09:38.115Z,8.00
2022-10-05T04:12:28.863Z,8.43
2022-10-05T04:15:20.730Z,8.10
2022-10-05T04:18:20.258Z,7.80
2022-10-05T04:21:12.536Z,7.60
2022-10-05T04:24:06.199Z,7.27
2022-10-05T04:26:56.842Z,7.90
2022-10-05T04:29:48.868Z,6.90
2022-10-05T04:32:39.021Z,7.27
2022-10-05T04:35:36.238Z,7.73
2022-10-05T04:38:45.676Z,7.67
2022-10-05T04:41:46.492Z,7.90
2022-10-05T04:44:59.095Z,7.80
2022-10-05T04:48:10.124Z,8.60
2022-10-05T04:51:10.275Z,9.13
2022-10-05T04:54:07.998Z,8.03
2022-10-05T04:57:01.574Z,7.80
2022-10-05T05:00:05.806Z,7.40
2022-10-05T05:03:13.355Z,7.20
2022-10-05T05:06:22.615Z,7.33
2022-10-05T05:09:25.855Z,8.70
2022-10-05T05:12:22.282Z,8.50
2022-10-05T05:15:19.603Z,9.40
2022-10-05T05:18:27.236Z,8.80
2022-10-05T05:21:23.087Z,10.13
2022-10-05T05:24:16.897Z,45.87
2022-10-05T05:27:25.390Z,9.17
2022-10-05T05:30:21.172Z,7.80
2022-10-05T05:33:20.004Z,8.77
2022-10-05T05:36:37.896Z,8.37
2022-10-05T05:39:29.210Z,7.30
2022-10-05T05:42:23.735Z,7.90
2022-10-05T05:45:18.791Z,7.23
2022-10-05T05:48:17.737Z,8.00
2022-10-05T05:51:09.937Z,7.93
2022-10-05T05:54:05.198Z,8.57
2022-10-05T05:56:56.926Z,8.10
2022-10-05T05:59:53.236Z,7.10
2022-10-05T06:02:47.484Z,8.03
2022-10-05T06:05:40.507Z,8.03
2022-10-05T06:08:33.848Z,6.70
2022-10-05T06:11:25.004Z,7.03
2022-10-05T06:14:18.518Z,6.77
2022-10-05T06:17:12.275Z,6.87
2022-10-05T06:20:05.463Z,7.73
2022-10-05T06:22:56.942Z,8.10
2022-10-05T06:25:55.604Z,6.57
2022-10-05T06:28:44.116Z,6.67
2022-10-05T06:31:49.417Z,6.83
2022-10-05T06:34:51.421Z,6.13
2022-10-05T06:37:56.196Z,6.80
2022-10-05T06:40:54.131Z,6.87
2022-10-05T06:43:49.501Z,6.77
2022-10-05T06:46:45.589Z,6.70
2022-10-05T06:49:37.804Z,6.00
2022-10-05T06:52:35.607Z,6.50
2022-10-05T06:55:31.791Z,6.00
2022-10-05T06:58:27.768Z,7.13
2022-10-05T07:01:23.167Z,6.57
2022-10-05T07:04:22.572Z,6.77
2022-10-05T07:07:18.256Z,6.67
2022-10-05T07:10:18.539Z,6.37
2022-10-05T07:13:28.434Z,8.00
2022-10-05T07:16:26.362Z,6.47
2022-10-05T07:19:24.666Z,6.50
2022-10-05T07:22:34.461Z,6.50
2022-10-05T07:25:27.418Z,6.53
2022-10-05T07:28:23.112Z,6.93
2022-10-05T07:31:16.116Z,7.00
2022-10-05T07:34:08.010Z,6.73
2022-10-05T07:37:18.722Z,6.10
2022-10-05T07:40:14.255Z,6.93
2022-10-05T07:43:08.909Z,6.87
2022-10-05T07:46:03.878Z,6.60
2022-10-05T07:49:03.743Z,7.40
2022-10-05T07:51:54.625Z,5.80
2022-10-05T07:54:48.046Z,6.63
2022-10-05T07:57:40.492Z,6.47
2022-10-05T08:00:46.384Z,6.40
2022-10-05T08:03:47.568Z,6.10
2022-10-05T08:06:49.675Z,6.30
2022-10-05T08:09:42.070Z,5.93
2022-10-05T08:12:33.805Z,6.00
2022-10-05T08:15:24.789Z,5.47
2022-10-05T08:18:17.868Z,4.57
2022-10-05T08:21:11.980Z,5.80
2022-10-05T08:24:05.102Z,5.60
2022-10-05T08:26:59.739Z,4.90
2022-10-05T08:29:53.808Z,5.13
2022-10-05T08:32:50.280Z,5.13
2022-10-05T08:35:40.705Z,4.30
2022-10-05T08:38:33.359Z,4.23
2022-10-05T08:41:55.660Z,4.50
2022-10-05T08:44:58.215Z,5.10
2022-10-05T08:48:14.486Z,4.80
2022-10-05T08:51:37.178Z,4.57
2022-10-05T08:54:39.464Z,4.90
2022-10-05T08:57:47.499Z,4.60
2022-10-05T09:00:43.188Z,4.80
2022-10-05T09:04:14.445Z,5.00
2022-10-05T09:07:38.623Z,4.53
2022-10-05T09:11:08.664Z,5.20
2022-10-05T09:14:11.513Z,5.10
2022-10-05T09:17:29.721Z,4.97
2022-10-05T09:20:32.145Z,4.40
2022-10-05T09:23:33.506Z,4.90
2022-10-05T09:26:43.322Z,5.03
2022-10-05T09:30:11.395Z,4.80
2022-10-05T09:33:34.103Z,4.00
2022-10-05T09:36:51.504Z,5.23
2022-10-05T09:40:05.678Z,4.20
2022-10-05T09:43:09.640Z,3.43
2022-10-05T09:46:23.694Z,4.30
2022-10-05T09:49:26.517Z,4.47
2022-10-05T09:52:55.511Z,3.97
2022-10-05T09:56:12.915Z,3.93
2022-10-05T09:59:34.996Z,4.20
2022-10-05T10:02:38.763Z,4.60
2022-10-05T10:05:56.230Z,4.00
2022-10-05T10:08:53.365Z,3.53
2022-10-05T10:11:50.403Z,4.60
2022-10-05T10:15:33.015Z,3.60
2022-10-05T10:18:30.807Z,4.00
2022-10-05T10:21:35.244Z,3.40
2022-10-05T10:24:37.950Z,3.80
2022-10-05T10:27:37.548Z,3.40
2022-10-05T10:30:44.447Z,3.73
2022-10-05T10:33:55.670Z,3.77
2022-10-05T10:37:10.001Z,3.73
2022-10-05T10:40:09.570Z,4.07
2022-10-05T10:43:39.232Z,3.27
2022-10-05T10:46:36.692Z,3.07
2022-10-05T10:49:39.705Z,3.87
2022-10-05T10:52:38.669Z,3.83
2022-10-05T10:55:35.924Z,2.90
2022-10-05T10:58:50.409Z,3.03
2022-10-05T11:01:41.646Z,3.50
2022-10-05T11:04:47.674Z,3.47
2022-10-05T11:07:48.797Z,2.93
2022-10-05T11:13:34.426Z,3.40
2022-10-05T11:16:52.724Z,3.03
2022-10-05T11:20:05.660Z,3.50
2022-10-05T11:23:08.446Z,3.63
2022-10-05T11:26:12.173Z,3.40
2022-10-05T11:29:22.328Z,3.40
2022-10-05T11:32:56.371Z,3.40
2022-10-05T11:36:08.849Z,2.80
2022-10-05T11:39:30.309Z,3.67
2022-10-05T11:42:45.853Z,3.57
2022-10-05T11:45:44.277Z,4.50
2022-10-05T11:48:43.868Z,3.27
2022-10-05T11:51:40.627Z,3.80
2022-10-05T11:55:09.829Z,2.60
2022-10-05T11:58:01.549Z,3.53
2022-10-05T12:00:55.517Z,2.80
2022-10-05T12:03:53.975Z,2.70
2022-10-05T12:06:54.621Z,2.50
2022-10-05T12:10:10.521Z,2.97
2022-10-05T12:13:06.071Z,2.70
2022-10-05T12:15:59.981Z,2.73
2022-10-05T12:18:54.877Z,2.93
2022-10-05T12:21:48.030Z,3.00
2022-10-05T12:25:01.576Z,2.30
2022-10-05T12:27:53.373Z,2.40
2022-10-05T12:31:03.230Z,2.67
2022-10-05T12:33:55.781Z,2.63
2022-10-05T12:37:05.070Z,2.20
2022-10-05T12:39:58.838Z,2.40
2022-10-05T12:42:53.838Z,2.30
2022-10-05T12:45:51.224Z,2.30
2022-10-05T12:48:56.043Z,2.07
2022-10-05T12:51:49.348Z,2.40
2022-10-05T12:54:47.514Z,2.40
2022-10-05T12:57:40.940Z,2.33
2022-10-05T13:00:31.354Z,2.03
2022-10-05T13:03:26.040Z,2.10
2022-10-05T13:06:20.077Z,2.60
2022-10-05T13:09:14.145Z,2.33
2022-10-05T13:12:08.390Z,2.53
2022-10-05T13:15:03.655Z,2.17
2022-10-05T13:18:00.864Z,2.23
2022-10-05T13:20:53.783Z,2.30
2022-10-05T13:23:51.667Z,1.90
2022-10-05T13:26:45.745Z,2.73
2022-10-05T13:29:40.697Z,2.47
2022-10-05T13:32:35.192Z,2.50
2022-10-05T13:35:34.972Z,2.50
2022-10-05T13:38:34.123Z,2.50
2022-10-05T13:41:30.271Z,2.53
2022-10-05T13:44:27.486Z,2.50
2022-10-05T13:47:23.035Z,2.80
2022-10-05T13:50:18.402Z,2.60
2022-10-05T13:53:16.206Z,2.30
2022-10-05T13:56:09.280Z,2.27
2022-10-05T13:59:05.902Z,3.27
2022-10-05T14:01:59.661Z,2.77
2022-10-05T14:04:51.929Z,2.37
2022-10-05T14:07:50.248Z,1.90
2022-10-05T14:10:40.328Z,2.60
2022-10-05T14:13:35.284Z,2.20
2022-10-05T14:16:25.600Z,2.40
2022-10-05T14:19:21.813Z,2.57
2022-10-05T14:22:13.976Z,2.10
2022-10-05T14:25:16.246Z,3.00
2022-10-05T14:28:24.444Z,2.13
2022-10-05T14:31:16.076Z,2.50
2022-10-05T14:34:33.058Z,2.20
2022-10-05T14:37:23.011Z,2.30
2022-10-05T14:40:30.684Z,2.10
2022-10-05T14:43:20.984Z,2.43
2022-10-05T14:46:27.052Z,2.30
2022-10-05T14:49:22.269Z,1.93
2022-10-05T14:52:32.288Z,2.40
2022-10-05T14:55:37.298Z,2.00
2022-10-05T14:58:34.988Z,2.00
2022-10-05T15:01:27.745Z,1.80
2022-10-05T15:04:29.365Z,1.90
2022-10-05T15:07:26.132Z,2.07
2022-10-05T15:10:29.497Z,1.90
2022-10-05T15:13:20.210Z,2.00
2022-10-05T15:16:16.015Z,2.10
2022-10-05T15:19:15.927Z,2.23
2022-10-05T15:22:22.891Z,2.10
2022-10-05T15:25:16.705Z,2.17
2022-10-05T15:28:13.559Z,1.90
2022-10-05T15:31:04.522Z,2.00
2022-10-05T15:33:57.505Z,2.40
2022-10-05T15:36:48.580Z,2.17
2022-10-05T15:39:43.119Z,2.27
2022-10-05T15:42:36.355Z,2.40
2022-10-05T15:45:32.363Z,2.43
2022-10-05T15:48:23.976Z,1.87
2022-10-05T15:51:19.337Z,1.50
2022-10-05T15:54:30.599Z,1.87
2022-10-05T15:57:22.871Z,1.83
2022-10-05T16:00:14.598Z,2.40
2022-10-05T16:03:13.007Z,1.90
2022-10-05T16:06:23.766Z,2.50
2022-10-05T16:09:22.452Z,2.17
2022-10-05T16:12:19.130Z,1.90
2022-10-05T16:15:20.188Z,1.80
2022-10-05T16:18:22.165Z,1.53
2022-10-05T16:21:21.506Z,1.70
2022-10-05T16:24:17.429Z,1.93
2022-10-05T16:27:11.332Z,1.80
2022-10-05T16:30:03.592Z,1.70
2022-10-05T16:33:00.846Z,1.57
2022-10-05T16:35:53.774Z,1.87
2022-10-05T16:38:47.862Z,1.97
2022-10-05T16:41:42.873Z,1.70
2022-10-05T16:44:38.330Z,1.50
2022-10-05T16:47:35.709Z,1.90
2022-10-05T16:50:30.091Z,1.80
2022-10-05T16:53:22.469Z,1.83
2022-10-05T16:56:12.749Z,1.87
2022-10-05T16:59:11.717Z,2.00
2022-10-05T17:02:07.577Z,2.50
2022-10-05T17:05:03.050Z,2.13
2022-10-05T17:08:02.551Z,2.63
2022-10-05T17:11:04.994Z,2.10
2022-10-05T17:14:17.569Z,2.17
2022-10-05T17:17:22.800Z,2.17
2022-10-05T17:20:27.348Z,2.07
2022-10-05T17:23:30.183Z,2.50
2022-10-05T17:26:35.189Z,2.40
2022-10-05T17:29:29.306Z,2.57
2022-10-05T17:32:39.586Z,2.63
2022-10-05T17:35:52.712Z,2.80
2022-10-05T17:38:50.681Z,2.57
2022-10-05T17:41:39.832Z,2.97
2022-10-05T17:44:29.182Z,3.50
2022-10-05T17:47:56.148Z,3.73
2022-10-05T17:51:03.465Z,3.30
2022-10-05T17:54:10.850Z,3.00
2022-10-05T17:57:19.673Z,3.60
2022-10-05T18:00:40.258Z,4.53
2022-10-05T18:03:40.884Z,6.13
2022-10-05T18:06:34.454Z,5.53
2022-10-05T18:09:36.120Z,5.67
2022-10-05T18:12:44.070Z,7.17
2022-10-05T18:15:48.570Z,7.20
2022-10-05T18:18:56.462Z,5.90
2022-10-05T18:22:01.232Z,4.30
2022-10-05T18:25:03.568Z,4.53
2022-10-05T18:28:03.964Z,4.20
2022-10-05T18:31:04.508Z,4.90
2022-10-05T18:34:09.974Z,5.23
2022-10-05T18:37:12.411Z,6.60
2022-10-05T18:40:13.009Z,5.20
2022-10-05T18:43:17.229Z,7.00
2022-10-05T18:46:21.853Z,5.80
2022-10-05T18:49:24.710Z,5.17
2022-10-05T18:52:18.641Z,5.67
2022-10-05T18:55:15.371Z,6.70
2022-10-05T18:58:27.066Z,6.17
2022-10-05T19:01:27.918Z,5.60
2022-10-05T19:04:22.560Z,5.60
2022-10-05T19:07:19.513Z,5.00
2022-10-05T19:10:16.031Z,5.40
2022-10-05T19:13:14.459Z,7.57
2022-10-05T19:16:12.288Z,8.10
2022-10-05T19:19:16.012Z,7.37
2022-10-05T19:22:09.109Z,6.20
2022-10-05T19:28:04.139Z,6.57
2022-10-05T19:31:02.570Z,6.17
2022-10-05T19:33:59.460Z,7.33
2022-10-05T19:36:58.280Z,6.10
2022-10-05T19:39:52.142Z,6.87
2022-10-05T19:42:55.552Z,7.97
2022-10-05T19:45:48.464Z,5.93
2022-10-05T19:48:43.073Z,7.00
2022-10-05T19:51:33.047Z,6.27
2022-10-05T19:54:25.832Z,6.37
2022-10-05T19:57:17.994Z,6.10
2022-10-05T20:00:20.543Z,5.43
2022-10-05T20:03:11.868Z,6.30
2022-10-05T20:06:02.116Z,6.90
2022-10-05T20:08:51.895Z,6.63
2022-10-05T20:11:50.244Z,6.90
2022-10-05T20:14:59.453Z,6.97
2022-10-05T20:18:06.530Z,6.03
2022-10-05T20:20:56.537Z,6.60
2022-10-05T20:23:45.057Z,6.53
2022-10-05T20:27:05.221Z,7.20
2022-10-05T20:29:53.856Z,6.50
2022-10-05T20:32:43.708Z,6.70
2022-10-05T20:35:33.640Z,6.37
2022-10-05T20:38:22.764Z,6.80
2022-10-05T20:41:11.194Z,6.83
2022-10-05T20:43:59.672Z,6.57
2022-10-05T20:46:48.335Z,6.60
2022-10-05T20:49:37.843Z,6.77
2022-10-05T20:52:27.621Z,6.57
2022-10-05T20:55:16.112Z,6.67
2022-10-05T20:58:04.827Z,7.40
2022-10-05T21:01:11.054Z,6.93
2022-10-05T21:03:59.781Z,7.27
2022-10-05T21:06:48.651Z,7.60
2022-10-05T21:09:40.879Z,7.30
2022-10-05T21:12:30.479Z,6.77
2022-10-05T21:15:23.660Z,7.73
2022-10-05T21:18:12.853Z,6.20
2022-10-05T21:21:02.738Z,7.00
2022-10-05T21:23:51.471Z,7.40
2022-10-05T21:26:41.689Z,5.77
2022-10-05T21:29:30.352Z,7.30
2022-10-05T21:32:18.783Z,7.10
2022-10-05T21:35:07.775Z,6.90
2022-10-05T21:37:56.214Z,8.27
2022-10-05T21:40:45.491Z,8.33
2022-10-05T21:43:35.391Z,7.30
2022-10-05T21:46:26.285Z,8.37
2022-10-05T21:49:17.524Z,6.40
2022-10-05T21:52:08.224Z,6.70
2022-10-05T21:54:56.897Z,7.10
2022-10-05T21:57:45.858Z,7.80
2022-10-05T22:00:35.720Z,7.10
2022-10-05T22:03:24.204Z,7.70
2022-10-05T22:06:12.679Z,6.73
2022-10-05T22:09:01.304Z,7.00
2022-10-05T22:11:49.904Z,6.93
2022-10-05T22:14:38.348Z,7.73
2022-10-05T22:17:31.228Z,6.60
2022-10-05T22:20:21.721Z,5.77
2022-10-05T22:23:10.151Z,6.57
2022-10-05T22:25:58.599Z,6.50
2022-10-05T22:28:48.385Z,7.80
2022-10-05T22:31:36.984Z,7.00
2022-10-05T22:34:26.903Z,6.53
2022-10-05T22:37:15.536Z,6.90
2022-10-05T22:40:04.525Z,6.60
2022-10-05T22:42:53.790Z,6.50
2022-10-05T22:45:42.447Z,7.13
2022-10-05T22:48:31.098Z,6.77
2022-10-05T22:51:21.266Z,7.07
2022-10-05T22:54:09.661Z,7.30
2022-10-05T22:56:58.093Z,6.80
2022-10-05T22:59:46.743Z,6.30
2022-10-05T23:02:37.189Z,5.73
2022-10-05T23:05:25.656Z,6.27
2022-10-05T23:08:16.032Z,6.60
2022-10-05T23:11:04.942Z,5.87
2022-10-05T23:13:55.605Z,6.10
2022-10-05T23:16:44.337Z,6.53
2022-10-05T23:19:32.816Z,6.47
2022-10-05T23:22:21.727Z,6.70
2022-10-05T23:25:11.646Z,6.50
2022-10-05T23:28:00.203Z,6.97
2022-10-05T23:30:48.734Z,6.20
2022-10-05T23:33:37.219Z,6.53
2022-10-05T23:36:27.505Z,6.20
2022-10-05T23:39:15.894Z,6.83
2022-10-05T23:42:05.927Z,6.50
2022-10-05T23:44:54.345Z,5.67
2022-10-05T23:47:42.786Z,6.30
2022-10-05T23:50:31.183Z,5.60
2022-10-05T23:53:20.272Z,6.87
2022-10-05T23:56:08.752Z,6.03
2022-10-05T23:58:58.567Z,5.87
